sensor_id;sensor_type;location;lat;lon;timestamp;temperature;humidity
10964;DHT22;5534;48.784;9.190;2023-05-24T00:01:18;16.40;99.90
10964;DHT22;5534;48.784;9.190;2023-05-24T00:03:53;16.20;99.90
10964;DHT22;5534;48.784;9.190;2023-05-24T00:06:24;16.30;99.90
10964;DHT22;5534;48.784;9.190;2023-05-24T00:08:51;16.30;99.90
10964;DHT22;5534;48.784;9.190;2023-05-24T00:11:17;16.30;99.90
10964;DHT22;5534;48.784;9.190;2023-05-24T00:13:43;16.30;99.90
10964;DHT22;5534;48.784;9.190;2023-05-24T00:16:08;16.30;99.90
10964;DHT22;5534;48.784;9.190;2023-05-24T00:18:34;16.30;99.90
10964;DHT22;5534;48.784;9.190;2023-05-24T00:21:06;16.30;99.90
10964;DHT22;5534;48.784;9.190;2023-05-24T00:23:33;16.40;99.90
10964;DHT22;5534;48.784;9.190;2023-05-24T00:25:59;16.40;99.90
10964;DHT22;5534;48.784;9.190;2023-05-24T00:28:26;16.40;99.90
10964;DHT22;5534;48.784;9.190;2023-05-24T00:30:52;16.50;99.90
10964;DHT22;5534;48.784;9.190;2023-05-24T00:33:17;16.40;99.90
10964;DHT22;5534;48.784;9.190;2023-05-24T00:35:43;16.40;99.90
10964;DHT22;5534;48.784;9.190;2023-05-24T00:38:09;16.50;99.90
10964;DHT22;5534;48.784;9.190;2023-05-24T00:40:35;16.50;99.90
10964;DHT22;5534;48.784;9.190;2023-05-24T00:43:00;16.50;99.90
10964;DHT22;5534;48.784;9.190;2023-05-24T00:45:26;16.50;99.90
10964;DHT22;5534;48.784;9.190;2023-05-24T00:47:52;16.50;99.90
10964;DHT22;5534;48.784;9.190;2023-05-24T00:50:18;16.40;99.90
10964;DHT22;5534;48.784;9.190;2023-05-24T00:52:46;16.50;99.90
10964;DHT22;5534;48.784;9.190;2023-05-24T00:55:14;16.40;99.90
10964;DHT22;5534;48.784;9.190;2023-05-24T00:57:41;16.30;99.90
10964;DHT22;5534;48.784;9.190;2023-05-24T01:00:07;16.40;99.90
10964;DHT22;5534;48.784;9.190;2023-05-24T01:02:34;16.30;99.90
10964;DHT22;5534;48.784;9.190;2023-05-24T01:04:59;16.30;99.90
10964;DHT22;5534;48.784;9.190;2023-05-24T01:07:58;16.30;99.90
10964;DHT22;5534;48.784;9.190;2023-05-24T01:13:26;16.10;99.90
10964;DHT22;5534;48.784;9.190;2023-05-24T01:16:10;16.00;99.90
10964;DHT22;5534;48.784;9.190;2023-05-24T01:18:44;16.00;99.90
10964;DHT22;5534;48.784;9.190;2023-05-24T01:28:53;16.00;99.90
10964;DHT22;5534;48.784;9.190;2023-05-24T01:31:19;16.00;99.90
10964;DHT22;5534;48.784;9.190;2023-05-24T01:33:46;16.00;99.90
10964;DHT22;5534;48.784;9.190;2023-05-24T01:36:11;16.00;99.90
10964;DHT22;5534;48.784;9.190;2023-05-24T01:38:38;16.00;99.90
10964;DHT22;5534;48.784;9.190;2023-05-24T01:43:40;16.00;99.90
10964;DHT22;5534;48.784;9.190;2023-05-24T01:51:10;15.90;99.90
10964;DHT22;5534;48.784;9.190;2023-05-24T01:53:45;15.90;99.90
10964;DHT22;5534;48.784;9.190;2023-05-24T01:56:15;15.80;99.90
10964;DHT22;5534;48.784;9.190;2023-05-24T01:58:44;15.80;99.90
10964;DHT22;5534;48.784;9.190;2023-05-24T02:01:12;15.80;99.90
10964;DHT22;5534;48.784;9.190;2023-05-24T02:03:39;15.80;99.90
10964;DHT22;5534;48.784;9.190;2023-05-24T02:06:05;16.00;99.90
10964;DHT22;5534;48.784;9.190;2023-05-24T02:08:32;15.80;99.90
10964;DHT22;5534;48.784;9.190;2023-05-24T02:10:58;15.70;99.90
10964;DHT22;5534;48.784;9.190;2023-05-24T02:13:24;15.80;99.90
10964;DHT22;5534;48.784;9.190;2023-05-24T02:15:50;15.80;99.90
10964;DHT22;5534;48.784;9.190;2023-05-24T02:18:18;15.70;99.90
10964;DHT22;5534;48.784;9.190;2023-05-24T02:20:44;15.70;99.90
10964;DHT22;5534;48.784;9.190;2023-05-24T02:23:11;15.60;99.90
10964;DHT22;5534;48.784;9.190;2023-05-24T02:25:37;15.60;99.90
10964;DHT22;5534;48.784;9.190;2023-05-24T02:28:02;15.60;99.90
10964;DHT22;5534;48.784;9.190;2023-05-24T02:30:28;15.60;99.90
10964;DHT22;5534;48.784;9.190;2023-05-24T02:32:54;15.50;99.90
10964;DHT22;5534;48.784;9.190;2023-05-24T02:35:20;15.50;99.90
10964;DHT22;5534;48.784;9.190;2023-05-24T02:37:46;15.50;99.90
10964;DHT22;5534;48.784;9.190;2023-05-24T02:40:12;15.40;99.90
10964;DHT22;5534;48.784;9.190;2023-05-24T02:42:38;15.50;99.90
10964;DHT22;5534;48.784;9.190;2023-05-24T02:45:04;15.50;99.90
10964;DHT22;5534;48.784;9.190;2023-05-24T02:47:30;15.40;99.90
10964;DHT22;5534;48.784;9.190;2023-05-24T02:49:55;15.60;99.90
10964;DHT22;5534;48.784;9.190;2023-05-24T02:52:21;15.60;99.90
10964;DHT22;5534;48.784;9.190;2023-05-24T02:54:51;15.60;99.90
10964;DHT22;5534;48.784;9.190;2023-05-24T02:57:17;15.60;99.90
10964;DHT22;5534;48.784;9.190;2023-05-24T02:59:43;15.60;99.90
10964;DHT22;5534;48.784;9.190;2023-05-24T03:02:09;15.50;99.90
10964;DHT22;5534;48.784;9.190;2023-05-24T03:04:38;15.40;99.90
10964;DHT22;5534;48.784;9.190;2023-05-24T03:07:04;15.40;99.90
10964;DHT22;5534;48.784;9.190;2023-05-24T03:09:30;15.40;99.90
10964;DHT22;5534;48.784;9.190;2023-05-24T03:11:56;15.30;99.90
10964;DHT22;5534;48.784;9.190;2023-05-24T03:14:21;15.30;99.90
10964;DHT22;5534;48.784;9.190;2023-05-24T03:16:49;15.20;99.90
10964;DHT22;5534;48.784;9.190;2023-05-24T03:19:15;15.20;99.90
10964;DHT22;5534;48.784;9.190;2023-05-24T03:21:43;15.30;99.90
10964;DHT22;5534;48.784;9.190;2023-05-24T03:24:09;15.30;99.90
10964;DHT22;5534;48.784;9.190;2023-05-24T03:26:41;15.20;99.90
10964;DHT22;5534;48.784;9.190;2023-05-24T03:29:07;15.10;99.90
10964;DHT22;5534;48.784;9.190;2023-05-24T03:31:32;15.20;99.90
10964;DHT22;5534;48.784;9.190;2023-05-24T03:33:58;15.20;99.90
10964;DHT22;5534;48.784;9.190;2023-05-24T03:36:24;15.20;99.90
10964;DHT22;5534;48.784;9.190;2023-05-24T03:38:50;15.20;99.90
10964;DHT22;5534;48.784;9.190;2023-05-24T03:41:16;15.20;99.90
10964;DHT22;5534;48.784;9.190;2023-05-24T03:43:42;15.10;99.90
10964;DHT22;5534;48.784;9.190;2023-05-24T03:46:07;15.10;99.90
10964;DHT22;5534;48.784;9.190;2023-05-24T03:48:33;15.20;99.90
10964;DHT22;5534;48.784;9.190;2023-05-24T03:50:59;15.10;99.90
10964;DHT22;5534;48.784;9.190;2023-05-24T03:53:25;15.20;99.90
10964;DHT22;5534;48.784;9.190;2023-05-24T03:55:50;15.20;99.90
10964;DHT22;5534;48.784;9.190;2023-05-24T03:58:16;15.20;99.90
10964;DHT22;5534;48.784;9.190;2023-05-24T04:00:42;15.30;99.90
10964;DHT22;5534;48.784;9.190;2023-05-24T04:03:08;15.20;99.90
10964;DHT22;5534;48.784;9.190;2023-05-24T04:05:34;15.10;99.90
10964;DHT22;5534;48.784;9.190;2023-05-24T04:07:59;15.10;99.90
10964;DHT22;5534;48.784;9.190;2023-05-24T04:10:26;15.30;99.90
10964;DHT22;5534;48.784;9.190;2023-05-24T04:12:51;15.30;99.90
10964;DHT22;5534;48.784;9.190;2023-05-24T04:15:17;15.20;99.90
10964;DHT22;5534;48.784;9.190;2023-05-24T04:17:44;15.20;99.90
10964;DHT22;5534;48.784;9.190;2023-05-24T04:20:11;15.20;99.90
10964;DHT22;5534;48.784;9.190;2023-05-24T04:22:39;15.10;99.90
10964;DHT22;5534;48.784;9.190;2023-05-24T04:25:05;15.00;99.90
10964;DHT22;5534;48.784;9.190;2023-05-24T04:27:32;15.00;99.90
10964;DHT22;5534;48.784;9.190;2023-05-24T04:29:57;15.00;99.90
10964;DHT22;5534;48.784;9.190;2023-05-24T04:32:23;15.10;99.90
10964;DHT22;5534;48.784;9.190;2023-05-24T04:34:49;15.00;99.90
10964;DHT22;5534;48.784;9.190;2023-05-24T04:37:17;14.90;99.90
10964;DHT22;5534;48.784;9.190;2023-05-24T04:39:43;14.90;99.90
10964;DHT22;5534;48.784;9.190;2023-05-24T04:42:10;14.90;99.90
10964;DHT22;5534;48.784;9.190;2023-05-24T04:44:36;14.90;99.90
10964;DHT22;5534;48.784;9.190;2023-05-24T04:47:02;14.80;99.90
10964;DHT22;5534;48.784;9.190;2023-05-24T04:49:28;14.90;99.90
10964;DHT22;5534;48.784;9.190;2023-05-24T04:51:55;15.00;99.90
10964;DHT22;5534;48.784;9.190;2023-05-24T04:54:21;15.20;99.90
10964;DHT22;5534;48.784;9.190;2023-05-24T04:56:47;15.20;99.90
10964;DHT22;5534;48.784;9.190;2023-05-24T04:59:13;15.20;99.90
10964;DHT22;5534;48.784;9.190;2023-05-24T05:01:39;15.20;99.90
10964;DHT22;5534;48.784;9.190;2023-05-24T05:04:04;15.10;99.90
10964;DHT22;5534;48.784;9.190;2023-05-24T05:06:30;15.10;99.90
10964;DHT22;5534;48.784;9.190;2023-05-24T05:08:59;15.00;99.90
10964;DHT22;5534;48.784;9.190;2023-05-24T05:11:25;15.00;99.90
10964;DHT22;5534;48.784;9.190;2023-05-24T05:13:52;15.00;99.90
10964;DHT22;5534;48.784;9.190;2023-05-24T05:16:18;14.90;99.90
10964;DHT22;5534;48.784;9.190;2023-05-24T05:18:44;14.80;99.90
10964;DHT22;5534;48.784;9.190;2023-05-24T05:21:10;14.70;99.90
10964;DHT22;5534;48.784;9.190;2023-05-24T05:23:36;14.70;99.90
10964;DHT22;5534;48.784;9.190;2023-05-24T05:26:04;14.70;99.90
10964;DHT22;5534;48.784;9.190;2023-05-24T05:28:31;14.70;99.90
10964;DHT22;5534;48.784;9.190;2023-05-24T05:30:57;14.80;99.90
10964;DHT22;5534;48.784;9.190;2023-05-24T05:33:23;14.80;99.90
10964;DHT22;5534;48.784;9.190;2023-05-24T05:35:49;14.90;99.90
10964;DHT22;5534;48.784;9.190;2023-05-24T05:38:15;15.00;99.90
10964;DHT22;5534;48.784;9.190;2023-05-24T05:40:40;14.90;99.90
10964;DHT22;5534;48.784;9.190;2023-05-24T05:43:06;14.90;99.90
10964;DHT22;5534;48.784;9.190;2023-05-24T05:45:35;15.00;99.90
10964;DHT22;5534;48.784;9.190;2023-05-24T05:48:00;15.00;99.90
10964;DHT22;5534;48.784;9.190;2023-05-24T05:50:26;15.00;99.90
10964;DHT22;5534;48.784;9.190;2023-05-24T05:52:52;14.90;99.90
10964;DHT22;5534;48.784;9.190;2023-05-24T05:55:18;14.90;99.90
10964;DHT22;5534;48.784;9.190;2023-05-24T05:57:43;14.90;99.90
10964;DHT22;5534;48.784;9.190;2023-05-24T06:00:10;14.90;99.90
10964;DHT22;5534;48.784;9.190;2023-05-24T06:02:36;15.00;99.90
10964;DHT22;5534;48.784;9.190;2023-05-24T06:05:02;15.20;99.90
10964;DHT22;5534;48.784;9.190;2023-05-24T06:07:27;15.10;99.90
10964;DHT22;5534;48.784;9.190;2023-05-24T06:09:53;15.10;99.90
10964;DHT22;5534;48.784;9.190;2023-05-24T06:12:19;15.10;99.90
10964;DHT22;5534;48.784;9.190;2023-05-24T06:14:45;15.10;99.90
10964;DHT22;5534;48.784;9.190;2023-05-24T06:17:12;15.00;99.90
10964;DHT22;5534;48.784;9.190;2023-05-24T06:19:38;15.00;99.90
10964;DHT22;5534;48.784;9.190;2023-05-24T06:22:04;15.00;99.90
10964;DHT22;5534;48.784;9.190;2023-05-24T06:24:29;15.10;99.90
10964;DHT22;5534;48.784;9.190;2023-05-24T06:26:55;15.10;99.90
10964;DHT22;5534;48.784;9.190;2023-05-24T06:29:21;15.10;99.90
10964;DHT22;5534;48.784;9.190;2023-05-24T06:31:48;15.10;99.90
10964;DHT22;5534;48.784;9.190;2023-05-24T06:34:14;15.00;99.90
10964;DHT22;5534;48.784;9.190;2023-05-24T06:36:45;15.20;99.90
10964;DHT22;5534;48.784;9.190;2023-05-24T06:39:13;15.40;99.90
10964;DHT22;5534;48.784;9.190;2023-05-24T06:41:39;15.40;99.90
10964;DHT22;5534;48.784;9.190;2023-05-24T06:44:06;15.40;99.90
10964;DHT22;5534;48.784;9.190;2023-05-24T06:46:32;15.30;99.90
10964;DHT22;5534;48.784;9.190;2023-05-24T06:48:58;15.20;99.90
10964;DHT22;5534;48.784;9.190;2023-05-24T06:51:24;15.20;99.90
10964;DHT22;5534;48.784;9.190;2023-05-24T06:53:50;15.20;99.90
10964;DHT22;5534;48.784;9.190;2023-05-24T06:56:16;15.10;99.90
10964;DHT22;5534;48.784;9.190;2023-05-24T06:58:42;15.20;99.90
10964;DHT22;5534;48.784;9.190;2023-05-24T07:01:08;15.00;99.90
10964;DHT22;5534;48.784;9.190;2023-05-24T07:03:34;15.10;99.90
10964;DHT22;5534;48.784;9.190;2023-05-24T07:06:00;15.00;99.90
10964;DHT22;5534;48.784;9.190;2023-05-24T07:08:26;15.00;99.90
10964;DHT22;5534;48.784;9.190;2023-05-24T07:10:53;15.00;99.90
10964;DHT22;5534;48.784;9.190;2023-05-24T07:13:19;15.10;99.90
10964;DHT22;5534;48.784;9.190;2023-05-24T07:15:45;15.00;99.90
10964;DHT22;5534;48.784;9.190;2023-05-24T07:18:12;14.90;99.90
10964;DHT22;5534;48.784;9.190;2023-05-24T07:20:37;14.90;99.90
10964;DHT22;5534;48.784;9.190;2023-05-24T07:23:03;14.90;99.90
10964;DHT22;5534;48.784;9.190;2023-05-24T07:25:29;15.00;99.90
10964;DHT22;5534;48.784;9.190;2023-05-24T07:27:55;14.90;99.90
10964;DHT22;5534;48.784;9.190;2023-05-24T07:30:21;14.80;99.90
10964;DHT22;5534;48.784;9.190;2023-05-24T07:32:47;14.70;99.90
10964;DHT22;5534;48.784;9.190;2023-05-24T07:35:13;14.80;99.90
10964;DHT22;5534;48.784;9.190;2023-05-24T07:37:39;14.90;99.90
10964;DHT22;5534;48.784;9.190;2023-05-24T07:40:06;15.00;99.90
10964;DHT22;5534;48.784;9.190;2023-05-24T07:42:34;14.90;99.90
10964;DHT22;5534;48.784;9.190;2023-05-24T07:45:01;14.80;99.90
10964;DHT22;5534;48.784;9.190;2023-05-24T07:47:27;14.70;99.90
10964;DHT22;5534;48.784;9.190;2023-05-24T07:49:52;14.80;99.90
10964;DHT22;5534;48.784;9.190;2023-05-24T07:52:18;15.00;99.90
10964;DHT22;5534;48.784;9.190;2023-05-24T07:54:45;15.20;99.90
10964;DHT22;5534;48.784;9.190;2023-05-24T07:57:11;15.30;99.90
10964;DHT22;5534;48.784;9.190;2023-05-24T07:59:37;15.40;99.90
10964;DHT22;5534;48.784;9.190;2023-05-24T08:02:03;15.40;99.90
10964;DHT22;5534;48.784;9.190;2023-05-24T08:04:32;15.40;99.90
10964;DHT22;5534;48.784;9.190;2023-05-24T08:06:58;15.30;99.90
10964;DHT22;5534;48.784;9.190;2023-05-24T08:09:27;15.30;99.90
10964;DHT22;5534;48.784;9.190;2023-05-24T08:11:55;15.20;99.90
10964;DHT22;5534;48.784;9.190;2023-05-24T08:14:21;15.10;99.90
10964;DHT22;5534;48.784;9.190;2023-05-24T08:16:48;15.20;99.90
10964;DHT22;5534;48.784;9.190;2023-05-24T08:19:13;15.10;99.90
10964;DHT22;5534;48.784;9.190;2023-05-24T08:21:39;15.00;99.90
10964;DHT22;5534;48.784;9.190;2023-05-24T08:24:06;15.00;99.90
10964;DHT22;5534;48.784;9.190;2023-05-24T08:26:32;15.00;99.90
10964;DHT22;5534;48.784;9.190;2023-05-24T08:28:58;15.10;99.90
10964;DHT22;5534;48.784;9.190;2023-05-24T08:31:24;15.10;99.90
10964;DHT22;5534;48.784;9.190;2023-05-24T08:33:51;15.30;99.90
10964;DHT22;5534;48.784;9.190;2023-05-24T08:36:17;15.30;99.90
10964;DHT22;5534;48.784;9.190;2023-05-24T08:38:43;15.40;99.90
10964;DHT22;5534;48.784;9.190;2023-05-24T08:41:10;15.20;99.90
10964;DHT22;5534;48.784;9.190;2023-05-24T08:43:37;15.20;99.90
10964;DHT22;5534;48.784;9.190;2023-05-24T08:46:04;15.10;99.90
10964;DHT22;5534;48.784;9.190;2023-05-24T08:48:30;15.20;99.90
10964;DHT22;5534;48.784;9.190;2023-05-24T08:50:57;15.30;99.90
10964;DHT22;5534;48.784;9.190;2023-05-24T08:53:23;15.40;99.90
10964;DHT22;5534;48.784;9.190;2023-05-24T08:55:49;15.40;99.90
10964;DHT22;5534;48.784;9.190;2023-05-24T08:58:19;15.50;99.90
10964;DHT22;5534;48.784;9.190;2023-05-24T09:00:45;15.50;99.90
10964;DHT22;5534;48.784;9.190;2023-05-24T09:03:12;15.40;99.90
10964;DHT22;5534;48.784;9.190;2023-05-24T09:05:40;15.40;99.90
10964;DHT22;5534;48.784;9.190;2023-05-24T09:08:06;15.40;99.90
10964;DHT22;5534;48.784;9.190;2023-05-24T09:10:34;15.50;99.90
10964;DHT22;5534;48.784;9.190;2023-05-24T09:13:02;15.40;99.90
10964;DHT22;5534;48.784;9.190;2023-05-24T09:15:28;15.40;99.90
10964;DHT22;5534;48.784;9.190;2023-05-24T09:17:54;15.10;99.90
10964;DHT22;5534;48.784;9.190;2023-05-24T09:20:20;15.30;99.90
10964;DHT22;5534;48.784;9.190;2023-05-24T09:22:50;15.30;99.90
10964;DHT22;5534;48.784;9.190;2023-05-24T09:25:17;15.60;99.90
10964;DHT22;5534;48.784;9.190;2023-05-24T09:27:49;15.30;99.90
10964;DHT22;5534;48.784;9.190;2023-05-24T09:30:15;15.30;99.90
10964;DHT22;5534;48.784;9.190;2023-05-24T09:32:56;15.30;99.90
10964;DHT22;5534;48.784;9.190;2023-05-24T09:35:22;15.40;99.90
10964;DHT22;5534;48.784;9.190;2023-05-24T09:37:49;15.50;99.90
10964;DHT22;5534;48.784;9.190;2023-05-24T09:40:18;15.50;99.90
10964;DHT22;5534;48.784;9.190;2023-05-24T09:42:44;15.60;99.90
10964;DHT22;5534;48.784;9.190;2023-05-24T09:45:11;15.50;99.90
10964;DHT22;5534;48.784;9.190;2023-05-24T09:47:39;15.40;99.90
10964;DHT22;5534;48.784;9.190;2023-05-24T09:50:11;15.60;99.90
10964;DHT22;5534;48.784;9.190;2023-05-24T09:52:38;15.60;99.90
10964;DHT22;5534;48.784;9.190;2023-05-24T09:55:36;15.50;99.90
10964;DHT22;5534;48.784;9.190;2023-05-24T09:58:04;15.40;99.90
10964;DHT22;5534;48.784;9.190;2023-05-24T10:00:41;15.40;99.90
10964;DHT22;5534;48.784;9.190;2023-05-24T10:03:09;15.40;99.90
10964;DHT22;5534;48.784;9.190;2023-05-24T10:05:37;15.40;99.90
10964;DHT22;5534;48.784;9.190;2023-05-24T10:08:03;15.50;99.90
10964;DHT22;5534;48.784;9.190;2023-05-24T10:10:34;15.60;99.90
10964;DHT22;5534;48.784;9.190;2023-05-24T10:13:01;15.50;99.90
10964;DHT22;5534;48.784;9.190;2023-05-24T10:15:28;15.60;99.90
10964;DHT22;5534;48.784;9.190;2023-05-24T10:17:54;15.50;99.90
10964;DHT22;5534;48.784;9.190;2023-05-24T10:20:21;15.50;99.90
10964;DHT22;5534;48.784;9.190;2023-05-24T10:22:51;15.30;99.90
10964;DHT22;5534;48.784;9.190;2023-05-24T10:25:21;15.20;99.90
10964;DHT22;5534;48.784;9.190;2023-05-24T10:27:56;15.20;99.90
10964;DHT22;5534;48.784;9.190;2023-05-24T10:30:47;15.20;99.90
10964;DHT22;5534;48.784;9.190;2023-05-24T10:33:16;15.10;99.90
10964;DHT22;5534;48.784;9.190;2023-05-24T10:35:44;15.20;99.90
10964;DHT22;5534;48.784;9.190;2023-05-24T10:38:10;15.20;99.90
10964;DHT22;5534;48.784;9.190;2023-05-24T10:40:40;15.20;99.90
10964;DHT22;5534;48.784;9.190;2023-05-24T10:43:07;15.20;99.90
10964;DHT22;5534;48.784;9.190;2023-05-24T10:45:40;15.30;99.90
10964;DHT22;5534;48.784;9.190;2023-05-24T10:50:38;15.30;99.90
10964;DHT22;5534;48.784;9.190;2023-05-24T10:53:13;15.30;99.90
10964;DHT22;5534;48.784;9.190;2023-05-24T10:55:56;15.40;99.90
10964;DHT22;5534;48.784;9.190;2023-05-24T10:58:42;15.70;99.90
10964;DHT22;5534;48.784;9.190;2023-05-24T11:01:13;15.70;99.90
10964;DHT22;5534;48.784;9.190;2023-05-24T11:03:43;15.70;99.90
10964;DHT22;5534;48.784;9.190;2023-05-24T11:06:08;15.90;99.90
10964;DHT22;5534;48.784;9.190;2023-05-24T11:08:35;16.00;99.90
10964;DHT22;5534;48.784;9.190;2023-05-24T11:11:09;15.90;99.90
10964;DHT22;5534;48.784;9.190;2023-05-24T11:13:39;15.90;99.90
10964;DHT22;5534;48.784;9.190;2023-05-24T11:16:05;16.00;99.90
10964;DHT22;5534;48.784;9.190;2023-05-24T11:18:32;16.10;99.90
10964;DHT22;5534;48.784;9.190;2023-05-24T11:21:04;16.00;99.90
10964;DHT22;5534;48.784;9.190;2023-05-24T11:23:31;15.90;99.90
10964;DHT22;5534;48.784;9.190;2023-05-24T11:25:57;16.00;99.90
10964;DHT22;5534;48.784;9.190;2023-05-24T11:28:23;15.90;99.90
10964;DHT22;5534;48.784;9.190;2023-05-24T11:30:49;16.10;99.90
10964;DHT22;5534;48.784;9.190;2023-05-24T11:33:23;16.30;99.90
10964;DHT22;5534;48.784;9.190;2023-05-24T11:35:55;16.50;99.90
10964;DHT22;5534;48.784;9.190;2023-05-24T11:38:21;16.50;99.90
10964;DHT22;5534;48.784;9.190;2023-05-24T11:40:48;16.20;99.90
10964;DHT22;5534;48.784;9.190;2023-05-24T11:43:18;16.20;99.90
10964;DHT22;5534;48.784;9.190;2023-05-24T11:45:49;16.30;99.90
10964;DHT22;5534;48.784;9.190;2023-05-24T11:48:17;16.30;99.90
10964;DHT22;5534;48.784;9.190;2023-05-24T11:50:46;16.50;99.90
10964;DHT22;5534;48.784;9.190;2023-05-24T11:53:15;16.80;99.90
10964;DHT22;5534;48.784;9.190;2023-05-24T11:55:41;16.80;99.90
10964;DHT22;5534;48.784;9.190;2023-05-24T11:58:21;16.90;99.90
10964;DHT22;5534;48.784;9.190;2023-05-24T12:00:48;17.00;99.90
10964;DHT22;5534;48.784;9.190;2023-05-24T12:03:14;17.10;99.90
10964;DHT22;5534;48.784;9.190;2023-05-24T12:05:41;17.20;99.90
10964;DHT22;5534;48.784;9.190;2023-05-24T12:08:09;17.10;99.90
10964;DHT22;5534;48.784;9.190;2023-05-24T12:10:39;17.10;99.90
10964;DHT22;5534;48.784;9.190;2023-05-24T12:13:06;17.00;99.90
10964;DHT22;5534;48.784;9.190;2023-05-24T12:15:42;17.00;99.90
10964;DHT22;5534;48.784;9.190;2023-05-24T12:18:18;17.00;99.90
10964;DHT22;5534;48.784;9.190;2023-05-24T12:20:48;16.90;99.90
10964;DHT22;5534;48.784;9.190;2023-05-24T12:23:17;16.90;99.90
10964;DHT22;5534;48.784;9.190;2023-05-24T12:25:43;16.90;99.90
10964;DHT22;5534;48.784;9.190;2023-05-24T12:28:09;17.20;99.90
10964;DHT22;5534;48.784;9.190;2023-05-24T12:30:36;17.20;99.90
10964;DHT22;5534;48.784;9.190;2023-05-24T12:33:02;17.30;99.90
10964;DHT22;5534;48.784;9.190;2023-05-24T12:35:28;17.40;99.90
10964;DHT22;5534;48.784;9.190;2023-05-24T12:37:58;17.50;99.90
10964;DHT22;5534;48.784;9.190;2023-05-24T12:40:26;17.70;99.90
10964;DHT22;5534;48.784;9.190;2023-05-24T12:42:56;17.70;99.90
10964;DHT22;5534;48.784;9.190;2023-05-24T12:45:23;17.70;99.90
10964;DHT22;5534;48.784;9.190;2023-05-24T12:47:59;17.60;99.90
10964;DHT22;5534;48.784;9.190;2023-05-24T12:50:27;17.50;99.90
10964;DHT22;5534;48.784;9.190;2023-05-24T12:52:53;17.50;99.90
10964;DHT22;5534;48.784;9.190;2023-05-24T12:55:23;17.70;99.90
10964;DHT22;5534;48.784;9.190;2023-05-24T12:57:50;17.90;99.90
10964;DHT22;5534;48.784;9.190;2023-05-24T13:00:24;17.90;99.90
10964;DHT22;5534;48.784;9.190;2023-05-24T13:02:56;17.90;99.90
10964;DHT22;5534;48.784;9.190;2023-05-24T13:05:24;17.90;99.90
10964;DHT22;5534;48.784;9.190;2023-05-24T13:07:51;17.90;99.90
10964;DHT22;5534;48.784;9.190;2023-05-24T13:10:18;18.00;99.90
10964;DHT22;5534;48.784;9.190;2023-05-24T13:12:46;17.90;99.90
10964;DHT22;5534;48.784;9.190;2023-05-24T13:15:12;17.90;99.90
10964;DHT22;5534;48.784;9.190;2023-05-24T13:17:39;17.80;99.90
10964;DHT22;5534;48.784;9.190;2023-05-24T13:20:06;17.60;99.90
10964;DHT22;5534;48.784;9.190;2023-05-24T13:22:33;17.90;99.90
10964;DHT22;5534;48.784;9.190;2023-05-24T13:25:00;18.00;99.90
10964;DHT22;5534;48.784;9.190;2023-05-24T13:27:27;18.00;99.90
10964;DHT22;5534;48.784;9.190;2023-05-24T13:29:53;18.20;99.90
10964;DHT22;5534;48.784;9.190;2023-05-24T13:32:20;18.20;99.90
10964;DHT22;5534;48.784;9.190;2023-05-24T13:34:47;18.40;99.90
10964;DHT22;5534;48.784;9.190;2023-05-24T13:37:14;18.40;99.90
10964;DHT22;5534;48.784;9.190;2023-05-24T13:39:41;18.20;99.90
10964;DHT22;5534;48.784;9.190;2023-05-24T13:42:07;18.40;99.90
10964;DHT22;5534;48.784;9.190;2023-05-24T13:44:34;18.30;99.90
10964;DHT22;5534;48.784;9.190;2023-05-24T13:47:00;18.40;99.90
10964;DHT22;5534;48.784;9.190;2023-05-24T13:49:27;18.40;99.90
10964;DHT22;5534;48.784;9.190;2023-05-24T13:51:54;18.60;99.50
10964;DHT22;5534;48.784;9.190;2023-05-24T13:54:20;18.50;97.70
10964;DHT22;5534;48.784;9.190;2023-05-24T13:56:47;18.30;97.10
10964;DHT22;5534;48.784;9.190;2023-05-24T13:59:15;18.20;97.60
10964;DHT22;5534;48.784;9.190;2023-05-24T14:01:41;18.00;98.70
10964;DHT22;5534;48.784;9.190;2023-05-24T14:04:07;17.80;98.20
10964;DHT22;5534;48.784;9.190;2023-05-24T14:06:33;17.80;99.00
10964;DHT22;5534;48.784;9.190;2023-05-24T14:08:59;18.00;98.80
10964;DHT22;5534;48.784;9.190;2023-05-24T14:11:26;18.10;98.90
10964;DHT22;5534;48.784;9.190;2023-05-24T14:13:55;18.40;98.20
10964;DHT22;5534;48.784;9.190;2023-05-24T14:16:21;18.50;98.10
10964;DHT22;5534;48.784;9.190;2023-05-24T14:18:47;18.70;97.70
10964;DHT22;5534;48.784;9.190;2023-05-24T14:21:18;18.70;95.70
10964;DHT22;5534;48.784;9.190;2023-05-24T14:23:50;18.70;95.20
10964;DHT22;5534;48.784;9.190;2023-05-24T14:26:17;18.70;95.20
10964;DHT22;5534;48.784;9.190;2023-05-24T14:28:43;18.60;96.20
10964;DHT22;5534;48.784;9.190;2023-05-24T14:31:09;18.60;96.40
10964;DHT22;5534;48.784;9.190;2023-05-24T14:33:34;18.70;96.60
10964;DHT22;5534;48.784;9.190;2023-05-24T14:36:00;18.80;96.50
10964;DHT22;5534;48.784;9.190;2023-05-24T14:38:26;18.80;96.30
10964;DHT22;5534;48.784;9.190;2023-05-24T14:40:52;18.70;95.70
10964;DHT22;5534;48.784;9.190;2023-05-24T14:43:18;18.80;95.60
10964;DHT22;5534;48.784;9.190;2023-05-24T14:45:44;18.80;95.20
10964;DHT22;5534;48.784;9.190;2023-05-24T14:48:09;18.70;95.90
10964;DHT22;5534;48.784;9.190;2023-05-24T14:50:36;18.80;95.20
10964;DHT22;5534;48.784;9.190;2023-05-24T14:53:02;18.90;95.40
10964;DHT22;5534;48.784;9.190;2023-05-24T14:55:34;19.00;95.20
10964;DHT22;5534;48.784;9.190;2023-05-24T14:58:01;19.10;95.20
10964;DHT22;5534;48.784;9.190;2023-05-24T15:00:26;19.00;95.50
10964;DHT22;5534;48.784;9.190;2023-05-24T15:02:52;18.90;95.50
10964;DHT22;5534;48.784;9.190;2023-05-24T15:05:18;19.10;95.40
10964;DHT22;5534;48.784;9.190;2023-05-24T15:07:45;19.10;95.50
10964;DHT22;5534;48.784;9.190;2023-05-24T15:10:11;19.00;96.00
10964;DHT22;5534;48.784;9.190;2023-05-24T15:12:37;19.00;95.70
10964;DHT22;5534;48.784;9.190;2023-05-24T15:15:03;19.00;95.70
10964;DHT22;5534;48.784;9.190;2023-05-24T15:17:31;18.80;96.10
10964;DHT22;5534;48.784;9.190;2023-05-24T15:19:56;18.90;95.50
10964;DHT22;5534;48.784;9.190;2023-05-24T15:22:24;18.80;95.40
10964;DHT22;5534;48.784;9.190;2023-05-24T15:24:51;18.60;95.30
10964;DHT22;5534;48.784;9.190;2023-05-24T15:27:17;18.50;95.30
10964;DHT22;5534;48.784;9.190;2023-05-24T15:29:42;18.40;95.60
10964;DHT22;5534;48.784;9.190;2023-05-24T15:32:08;18.40;95.80
10964;DHT22;5534;48.784;9.190;2023-05-24T15:34:34;18.30;96.30
10964;DHT22;5534;48.784;9.190;2023-05-24T15:37:00;18.40;96.50
10964;DHT22;5534;48.784;9.190;2023-05-24T15:39:26;18.40;96.20
10964;DHT22;5534;48.784;9.190;2023-05-24T15:41:51;18.40;96.20
10964;DHT22;5534;48.784;9.190;2023-05-24T15:44:19;18.50;96.00
10964;DHT22;5534;48.784;9.190;2023-05-24T15:46:45;18.50;95.90
10964;DHT22;5534;48.784;9.190;2023-05-24T15:49:12;18.60;95.60
10964;DHT22;5534;48.784;9.190;2023-05-24T15:51:37;18.60;95.90
10964;DHT22;5534;48.784;9.190;2023-05-24T15:54:03;18.60;95.30
10964;DHT22;5534;48.784;9.190;2023-05-24T15:56:29;18.50;95.40
10964;DHT22;5534;48.784;9.190;2023-05-24T15:58:54;18.40;95.80
10964;DHT22;5534;48.784;9.190;2023-05-24T16:01:20;18.20;96.00
10964;DHT22;5534;48.784;9.190;2023-05-24T16:03:46;18.10;96.50
10964;DHT22;5534;48.784;9.190;2023-05-24T16:06:12;18.10;96.60